KPGV/PGV METAR and TAF weather

Enter ICAO airport designator
Station Type Date Time Source
KPGV METAR 2023/02/05 14:15 UTC NOAA

KPGV 051415Z AUTO 00000KT 10SM SCT046 SCT085 03/M02 A3040 RMK AO2


Station Type Date Time Source
KPGV Decoded METAR 2023/02/05 14:15 UTC NOAA

Pitt-Greenville Airport, NC, United States (KPGV) 35-38N 077-24W
Feb 05, 2023 - 09:15 AM EST / 2023.02.05 1415 UTC
Wind: Calm:0
Visibility: 10 mile(s):0
Sky conditions: partly cloudy
Temperature: 37 F (3 C)
Dew Point: 28 F (-2 C)
Relative Humidity: 69%
Pressure (altimeter): 30.4 in. Hg (1029 hPa)
ob: KPGV 051415Z AUTO 00000KT 10SM SCT046 SCT085 03/M02 A3040 RMK AO2
cycle: 14

Station Type Date Time Source
KPGV TAF 2023/02/05 12:39 UTC NOAA

TAF KPGV 051136Z 0512/0612 00000KT P6SM SCT040 OVC190
FM051600 18003KT P6SM VCSH OVC028
FM052000 VRB03KT 5SM SHRA BR OVC016
FM052100 VRB03KT 3SM SHRA BR SCT006 OVC009
FM060400 27003KT 2SM BR BKN007
FM060700 30005KT P6SM SCT015
AMD LTD TO CLD VIS AND WIND

Example: see airport list